sensor_id;sensor_type;location;lat;lon;timestamp;temperature;humidity
30206;DHT22;17010;51.306;3.150;2022-07-10T00:02:04;16.30;99.90
30206;DHT22;17010;51.306;3.150;2022-07-10T00:04:31;16.30;99.90
30206;DHT22;17010;51.306;3.150;2022-07-10T00:06:59;16.30;99.90
30206;DHT22;17010;51.306;3.150;2022-07-10T00:09:30;16.30;99.90
30206;DHT22;17010;51.306;3.150;2022-07-10T00:11:56;16.20;99.90
30206;DHT22;17010;51.306;3.150;2022-07-10T00:14:25;16.30;99.90
30206;DHT22;17010;51.306;3.150;2022-07-10T00:16:52;16.20;99.90
30206;DHT22;17010;51.306;3.150;2022-07-10T00:19:18;16.20;99.90
30206;DHT22;17010;51.306;3.150;2022-07-10T00:21:49;16.10;99.90
30206;DHT22;17010;51.306;3.150;2022-07-10T00:24:17;16.00;99.90
30206;DHT22;17010;51.306;3.150;2022-07-10T00:26:48;16.00;99.90
30206;DHT22;17010;51.306;3.150;2022-07-10T00:29:15;15.90;99.90
30206;DHT22;17010;51.306;3.150;2022-07-10T00:31:41;15.80;99.90
30206;DHT22;17010;51.306;3.150;2022-07-10T00:34:07;15.80;99.90
30206;DHT22;17010;51.306;3.150;2022-07-10T00:36:36;15.70;99.90
30206;DHT22;17010;51.306;3.150;2022-07-10T00:39:03;15.70;99.90
30206;DHT22;17010;51.306;3.150;2022-07-10T00:41:31;15.70;99.90
30206;DHT22;17010;51.306;3.150;2022-07-10T00:44:01;15.60;99.90
30206;DHT22;17010;51.306;3.150;2022-07-10T00:46:29;15.60;99.90
30206;DHT22;17010;51.306;3.150;2022-07-10T00:48:56;15.50;99.90
30206;DHT22;17010;51.306;3.150;2022-07-10T00:51:29;15.50;99.90
30206;DHT22;17010;51.306;3.150;2022-07-10T00:54:01;15.40;99.90
30206;DHT22;17010;51.306;3.150;2022-07-10T00:56:28;15.40;99.90
30206;DHT22;17010;51.306;3.150;2022-07-10T00:58:59;15.30;99.90
30206;DHT22;17010;51.306;3.150;2022-07-10T01:01:25;15.30;99.90
30206;DHT22;17010;51.306;3.150;2022-07-10T01:03:51;15.30;99.90
30206;DHT22;17010;51.306;3.150;2022-07-10T01:06:17;15.30;99.90
30206;DHT22;17010;51.306;3.150;2022-07-10T01:08:46;15.20;99.90
30206;DHT22;17010;51.306;3.150;2022-07-10T01:11:13;15.20;99.90
30206;DHT22;17010;51.306;3.150;2022-07-10T01:13:41;15.10;99.90
30206;DHT22;17010;51.306;3.150;2022-07-10T01:16:08;15.10;99.90
30206;DHT22;17010;51.306;3.150;2022-07-10T01:18:34;15.10;99.90
30206;DHT22;17010;51.306;3.150;2022-07-10T01:21:01;15.10;99.90
30206;DHT22;17010;51.306;3.150;2022-07-10T01:23:30;15.00;99.90
30206;DHT22;17010;51.306;3.150;2022-07-10T01:25:59;15.00;99.90
30206;DHT22;17010;51.306;3.150;2022-07-10T01:28:28;14.90;99.90
30206;DHT22;17010;51.306;3.150;2022-07-10T01:30:57;14.90;99.90
30206;DHT22;17010;51.306;3.150;2022-07-10T01:33:24;14.80;99.90
30206;DHT22;17010;51.306;3.150;2022-07-10T01:35:53;14.80;99.90
30206;DHT22;17010;51.306;3.150;2022-07-10T01:38:19;14.80;99.90
30206;DHT22;17010;51.306;3.150;2022-07-10T01:40:46;14.70;99.90
30206;DHT22;17010;51.306;3.150;2022-07-10T01:43:15;14.70;99.90
30206;DHT22;17010;51.306;3.150;2022-07-10T01:45:45;14.70;99.90
30206;DHT22;17010;51.306;3.150;2022-07-10T01:48:12;14.70;99.90
30206;DHT22;17010;51.306;3.150;2022-07-10T01:50:38;14.70;99.90
30206;DHT22;17010;51.306;3.150;2022-07-10T01:53:07;14.60;99.90
30206;DHT22;17010;51.306;3.150;2022-07-10T01:55:34;14.60;99.90
30206;DHT22;17010;51.306;3.150;2022-07-10T01:58:02;14.60;99.90
30206;DHT22;17010;51.306;3.150;2022-07-10T02:00:28;14.60;99.90
30206;DHT22;17010;51.306;3.150;2022-07-10T02:02:55;14.70;99.90
30206;DHT22;17010;51.306;3.150;2022-07-10T02:05:42;14.60;99.90
30206;DHT22;17010;51.306;3.150;2022-07-10T02:08:11;14.60;99.90
30206;DHT22;17010;51.306;3.150;2022-07-10T02:10:41;14.60;99.90
30206;DHT22;17010;51.306;3.150;2022-07-10T02:13:08;14.70;99.90
30206;DHT22;17010;51.306;3.150;2022-07-10T02:15:35;14.60;99.90
30206;DHT22;17010;51.306;3.150;2022-07-10T02:18:02;14.60;99.90
30206;DHT22;17010;51.306;3.150;2022-07-10T02:20:30;14.60;99.90
30206;DHT22;17010;51.306;3.150;2022-07-10T02:23:01;14.60;99.90
30206;DHT22;17010;51.306;3.150;2022-07-10T02:25:28;14.60;99.90
30206;DHT22;17010;51.306;3.150;2022-07-10T02:27:55;14.60;99.90
30206;DHT22;17010;51.306;3.150;2022-07-10T02:30:21;14.50;99.90
30206;DHT22;17010;51.306;3.150;2022-07-10T02:32:47;14.40;99.90
30206;DHT22;17010;51.306;3.150;2022-07-10T02:35:15;14.40;99.90
30206;DHT22;17010;51.306;3.150;2022-07-10T02:37:42;14.30;99.90
30206;DHT22;17010;51.306;3.150;2022-07-10T02:40:08;14.30;99.90
30206;DHT22;17010;51.306;3.150;2022-07-10T02:42:35;14.30;99.90
30206;DHT22;17010;51.306;3.150;2022-07-10T02:45:02;14.20;99.90
30206;DHT22;17010;51.306;3.150;2022-07-10T02:47:32;14.20;99.90
30206;DHT22;17010;51.306;3.150;2022-07-10T02:49:59;14.20;99.90
30206;DHT22;17010;51.306;3.150;2022-07-10T02:52:25;14.20;99.90
30206;DHT22;17010;51.306;3.150;2022-07-10T02:54:52;14.20;99.90
30206;DHT22;17010;51.306;3.150;2022-07-10T02:57:21;14.30;99.90
30206;DHT22;17010;51.306;3.150;2022-07-10T02:59:47;14.30;99.90
30206;DHT22;17010;51.306;3.150;2022-07-10T03:02:13;14.30;99.90
30206;DHT22;17010;51.306;3.150;2022-07-10T03:04:39;14.20;99.90
30206;DHT22;17010;51.306;3.150;2022-07-10T03:07:05;14.20;99.90
30206;DHT22;17010;51.306;3.150;2022-07-10T03:09:32;14.10;99.90
30206;DHT22;17010;51.306;3.150;2022-07-10T03:11:58;14.10;99.90
30206;DHT22;17010;51.306;3.150;2022-07-10T03:14:25;14.10;99.90
30206;DHT22;17010;51.306;3.150;2022-07-10T03:16:51;14.10;99.90
30206;DHT22;17010;51.306;3.150;2022-07-10T03:19:21;14.10;99.90
30206;DHT22;17010;51.306;3.150;2022-07-10T03:21:49;14.10;99.90
30206;DHT22;17010;51.306;3.150;2022-07-10T03:24:19;14.10;99.90
30206;DHT22;17010;51.306;3.150;2022-07-10T03:26:45;14.10;99.90
30206;DHT22;17010;51.306;3.150;2022-07-10T03:29:15;14.20;99.90
30206;DHT22;17010;51.306;3.150;2022-07-10T03:31:41;14.10;99.90
30206;DHT22;17010;51.306;3.150;2022-07-10T03:34:09;14.10;99.90
30206;DHT22;17010;51.306;3.150;2022-07-10T03:36:40;14.00;99.90
30206;DHT22;17010;51.306;3.150;2022-07-10T03:39:07;14.00;99.90
30206;DHT22;17010;51.306;3.150;2022-07-10T03:41:34;14.10;99.90
30206;DHT22;17010;51.306;3.150;2022-07-10T03:44:00;14.10;99.90
30206;DHT22;17010;51.306;3.150;2022-07-10T03:46:27;14.00;99.90
30206;DHT22;17010;51.306;3.150;2022-07-10T03:48:58;14.10;99.90
30206;DHT22;17010;51.306;3.150;2022-07-10T03:51:26;14.10;99.90
30206;DHT22;17010;51.306;3.150;2022-07-10T03:53:55;14.10;99.90
30206;DHT22;17010;51.306;3.150;2022-07-10T03:56:23;14.10;99.90
30206;DHT22;17010;51.306;3.150;2022-07-10T03:59:08;14.20;99.90
30206;DHT22;17010;51.306;3.150;2022-07-10T04:01:34;14.20;99.90
30206;DHT22;17010;51.306;3.150;2022-07-10T04:04:00;14.20;99.90
30206;DHT22;17010;51.306;3.150;2022-07-10T04:06:27;14.20;99.90
30206;DHT22;17010;51.306;3.150;2022-07-10T04:08:56;14.20;99.90
30206;DHT22;17010;51.306;3.150;2022-07-10T04:11:22;14.20;99.90
30206;DHT22;17010;51.306;3.150;2022-07-10T04:13:49;14.30;99.90
30206;DHT22;17010;51.306;3.150;2022-07-10T04:16:15;14.30;99.90
30206;DHT22;17010;51.306;3.150;2022-07-10T04:18:44;14.30;99.90
30206;DHT22;17010;51.306;3.150;2022-07-10T04:21:10;14.30;99.90
30206;DHT22;17010;51.306;3.150;2022-07-10T04:23:36;14.40;99.90
30206;DHT22;17010;51.306;3.150;2022-07-10T04:26:03;14.60;99.90
30206;DHT22;17010;51.306;3.150;2022-07-10T04:28:29;14.70;99.90
30206;DHT22;17010;51.306;3.150;2022-07-10T04:30:55;14.90;99.90
30206;DHT22;17010;51.306;3.150;2022-07-10T04:33:21;15.00;99.90
30206;DHT22;17010;51.306;3.150;2022-07-10T04:35:47;15.10;99.90
30206;DHT22;17010;51.306;3.150;2022-07-10T04:38:13;15.20;99.90
30206;DHT22;17010;51.306;3.150;2022-07-10T04:40:39;15.40;99.90
30206;DHT22;17010;51.306;3.150;2022-07-10T04:43:08;15.50;99.90
30206;DHT22;17010;51.306;3.150;2022-07-10T04:45:38;15.70;99.90
30206;DHT22;17010;51.306;3.150;2022-07-10T04:48:05;15.80;99.90
30206;DHT22;17010;51.306;3.150;2022-07-10T04:50:33;15.90;99.90
30206;DHT22;17010;51.306;3.150;2022-07-10T04:52:59;16.00;99.90
30206;DHT22;17010;51.306;3.150;2022-07-10T04:55:28;16.00;99.90
30206;DHT22;17010;51.306;3.150;2022-07-10T04:57:59;16.10;99.90
30206;DHT22;17010;51.306;3.150;2022-07-10T05:00:27;16.00;99.90
30206;DHT22;17010;51.306;3.150;2022-07-10T05:02:53;16.00;99.90
30206;DHT22;17010;51.306;3.150;2022-07-10T05:05:24;16.00;99.90
30206;DHT22;17010;51.306;3.150;2022-07-10T05:07:53;16.00;99.90
30206;DHT22;17010;51.306;3.150;2022-07-10T05:10:19;16.00;99.90
30206;DHT22;17010;51.306;3.150;2022-07-10T05:12:46;16.00;99.90
30206;DHT22;17010;51.306;3.150;2022-07-10T05:15:12;16.00;99.90
30206;DHT22;17010;51.306;3.150;2022-07-10T05:17:41;16.00;99.90
30206;DHT22;17010;51.306;3.150;2022-07-10T05:20:10;16.10;99.90
30206;DHT22;17010;51.306;3.150;2022-07-10T05:22:37;16.10;99.90
30206;DHT22;17010;51.306;3.150;2022-07-10T05:25:03;16.20;99.90
30206;DHT22;17010;51.306;3.150;2022-07-10T05:27:29;16.30;99.90
30206;DHT22;17010;51.306;3.150;2022-07-10T05:29:58;16.40;99.90
30206;DHT22;17010;51.306;3.150;2022-07-10T05:32:26;16.70;99.90
30206;DHT22;17010;51.306;3.150;2022-07-10T05:34:53;17.20;99.90
30206;DHT22;17010;51.306;3.150;2022-07-10T05:37:19;17.90;99.90
30206;DHT22;17010;51.306;3.150;2022-07-10T05:39:45;18.60;99.90
30206;DHT22;17010;51.306;3.150;2022-07-10T05:42:11;19.30;99.90
30206;DHT22;17010;51.306;3.150;2022-07-10T05:44:40;20.00;99.90
30206;DHT22;17010;51.306;3.150;2022-07-10T05:47:07;20.60;99.90
30206;DHT22;17010;51.306;3.150;2022-07-10T05:49:33;21.20;99.90
30206;DHT22;17010;51.306;3.150;2022-07-10T05:51:59;21.70;99.90
30206;DHT22;17010;51.306;3.150;2022-07-10T05:54:28;22.20;99.90
30206;DHT22;17010;51.306;3.150;2022-07-10T05:56:54;22.60;99.90
30206;DHT22;17010;51.306;3.150;2022-07-10T05:59:20;23.10;99.90
30206;DHT22;17010;51.306;3.150;2022-07-10T06:01:49;23.50;99.90
30206;DHT22;17010;51.306;3.150;2022-07-10T06:04:15;23.90;99.90
30206;DHT22;17010;51.306;3.150;2022-07-10T06:06:41;24.30;99.90
30206;DHT22;17010;51.306;3.150;2022-07-10T06:09:08;24.60;99.90
30206;DHT22;17010;51.306;3.150;2022-07-10T06:11:34;24.90;99.90
30206;DHT22;17010;51.306;3.150;2022-07-10T06:14:00;25.20;99.90
30206;DHT22;17010;51.306;3.150;2022-07-10T06:16:31;25.40;99.90
30206;DHT22;17010;51.306;3.150;2022-07-10T06:19:00;25.50;99.90
30206;DHT22;17010;51.306;3.150;2022-07-10T06:21:26;25.40;99.90
30206;DHT22;17010;51.306;3.150;2022-07-10T06:23:53;25.50;99.90
30206;DHT22;17010;51.306;3.150;2022-07-10T06:26:19;25.60;99.90
30206;DHT22;17010;51.306;3.150;2022-07-10T06:28:45;25.60;99.90
30206;DHT22;17010;51.306;3.150;2022-07-10T06:31:13;25.40;99.90
30206;DHT22;17010;51.306;3.150;2022-07-10T06:33:47;25.30;99.90
30206;DHT22;17010;51.306;3.150;2022-07-10T06:36:15;25.00;99.90
30206;DHT22;17010;51.306;3.150;2022-07-10T06:38:42;24.50;99.90
30206;DHT22;17010;51.306;3.150;2022-07-10T06:41:08;24.40;99.90
30206;DHT22;17010;51.306;3.150;2022-07-10T06:43:35;24.40;99.90
30206;DHT22;17010;51.306;3.150;2022-07-10T06:46:03;24.50;99.90
30206;DHT22;17010;51.306;3.150;2022-07-10T06:48:30;24.70;99.90
30206;DHT22;17010;51.306;3.150;2022-07-10T06:50:58;25.10;99.90
30206;DHT22;17010;51.306;3.150;2022-07-10T06:53:28;25.40;99.90
30206;DHT22;17010;51.306;3.150;2022-07-10T06:55:54;25.50;99.90
30206;DHT22;17010;51.306;3.150;2022-07-10T06:58:21;25.30;99.90
30206;DHT22;17010;51.306;3.150;2022-07-10T07:00:50;25.20;99.90
30206;DHT22;17010;51.306;3.150;2022-07-10T07:03:19;25.20;99.90
30206;DHT22;17010;51.306;3.150;2022-07-10T07:05:48;25.20;99.90
30206;DHT22;17010;51.306;3.150;2022-07-10T07:08:16;24.90;99.90
30206;DHT22;17010;51.306;3.150;2022-07-10T07:10:45;24.90;99.90
30206;DHT22;17010;51.306;3.150;2022-07-10T07:13:15;24.90;99.90
30206;DHT22;17010;51.306;3.150;2022-07-10T07:15:46;25.00;99.90
30206;DHT22;17010;51.306;3.150;2022-07-10T07:18:23;25.40;99.90
30206;DHT22;17010;51.306;3.150;2022-07-10T07:21:01;25.60;99.90
30206;DHT22;17010;51.306;3.150;2022-07-10T07:23:48;25.90;99.90
30206;DHT22;17010;51.306;3.150;2022-07-10T07:26:16;25.80;99.90
30206;DHT22;17010;51.306;3.150;2022-07-10T07:28:44;25.50;99.90
30206;DHT22;17010;51.306;3.150;2022-07-10T07:31:13;25.30;99.90
30206;DHT22;17010;51.306;3.150;2022-07-10T07:33:43;25.10;99.90
30206;DHT22;17010;51.306;3.150;2022-07-10T07:36:09;25.30;99.90
30206;DHT22;17010;51.306;3.150;2022-07-10T07:38:36;25.40;99.90
30206;DHT22;17010;51.306;3.150;2022-07-10T07:41:07;25.70;99.90
30206;DHT22;17010;51.306;3.150;2022-07-10T07:43:34;26.50;99.90
30206;DHT22;17010;51.306;3.150;2022-07-10T07:46:05;27.10;99.90
30206;DHT22;17010;51.306;3.150;2022-07-10T07:48:32;27.40;99.90
30206;DHT22;17010;51.306;3.150;2022-07-10T07:51:03;27.40;99.90
30206;DHT22;17010;51.306;3.150;2022-07-10T07:53:31;27.40;99.90
30206;DHT22;17010;51.306;3.150;2022-07-10T07:55:58;27.60;99.90
30206;DHT22;17010;51.306;3.150;2022-07-10T07:58:26;28.20;99.90
30206;DHT22;17010;51.306;3.150;2022-07-10T08:00:53;28.70;99.90
30206;DHT22;17010;51.306;3.150;2022-07-10T08:03:20;29.20;99.90
30206;DHT22;17010;51.306;3.150;2022-07-10T08:05:48;29.60;99.90
30206;DHT22;17010;51.306;3.150;2022-07-10T08:08:19;29.80;99.90
30206;DHT22;17010;51.306;3.150;2022-07-10T08:10:48;30.00;99.90
30206;DHT22;17010;51.306;3.150;2022-07-10T08:13:16;29.80;99.90
30206;DHT22;17010;51.306;3.150;2022-07-10T08:15:45;29.10;99.90
30206;DHT22;17010;51.306;3.150;2022-07-10T08:18:14;28.80;99.90
30206;DHT22;17010;51.306;3.150;2022-07-10T08:20:43;28.50;99.90
30206;DHT22;17010;51.306;3.150;2022-07-10T08:23:11;28.20;99.90
30206;DHT22;17010;51.306;3.150;2022-07-10T08:25:37;27.60;99.90
30206;DHT22;17010;51.306;3.150;2022-07-10T08:28:06;27.10;99.90
30206;DHT22;17010;51.306;3.150;2022-07-10T08:30:35;27.10;99.90
30206;DHT22;17010;51.306;3.150;2022-07-10T08:33:02;27.20;99.90
30206;DHT22;17010;51.306;3.150;2022-07-10T08:35:36;26.50;99.90
30206;DHT22;17010;51.306;3.150;2022-07-10T08:38:04;26.70;99.90
30206;DHT22;17010;51.306;3.150;2022-07-10T08:40:38;27.30;99.90
30206;DHT22;17010;51.306;3.150;2022-07-10T08:43:09;28.10;99.90
30206;DHT22;17010;51.306;3.150;2022-07-10T08:45:36;28.40;99.90
30206;DHT22;17010;51.306;3.150;2022-07-10T08:48:06;28.80;99.90
30206;DHT22;17010;51.306;3.150;2022-07-10T08:50:33;29.00;99.90
30206;DHT22;17010;51.306;3.150;2022-07-10T08:53:22;29.10;99.90
30206;DHT22;17010;51.306;3.150;2022-07-10T08:55:49;29.50;99.90
30206;DHT22;17010;51.306;3.150;2022-07-10T08:58:15;30.00;99.90
30206;DHT22;17010;51.306;3.150;2022-07-10T09:00:45;30.70;99.90
30206;DHT22;17010;51.306;3.150;2022-07-10T09:03:11;30.30;99.90
30206;DHT22;17010;51.306;3.150;2022-07-10T09:05:38;30.50;99.90
30206;DHT22;17010;51.306;3.150;2022-07-10T09:08:09;30.70;99.90
30206;DHT22;17010;51.306;3.150;2022-07-10T09:10:49;31.00;99.90
30206;DHT22;17010;51.306;3.150;2022-07-10T09:13:16;31.30;99.90
30206;DHT22;17010;51.306;3.150;2022-07-10T09:15:48;30.80;99.90
30206;DHT22;17010;51.306;3.150;2022-07-10T09:18:18;31.20;99.90
30206;DHT22;17010;51.306;3.150;2022-07-10T09:20:45;31.80;99.90
30206;DHT22;17010;51.306;3.150;2022-07-10T09:23:22;31.60;99.90
30206;DHT22;17010;51.306;3.150;2022-07-10T09:25:50;31.30;99.90
30206;DHT22;17010;51.306;3.150;2022-07-10T09:28:21;30.70;99.90
30206;DHT22;17010;51.306;3.150;2022-07-10T09:30:52;30.10;99.90
30206;DHT22;17010;51.306;3.150;2022-07-10T09:43:55;31.10;99.90
30206;DHT22;17010;51.306;3.150;2022-07-10T09:46:32;31.20;99.90
30206;DHT22;17010;51.306;3.150;2022-07-10T09:51:34;31.10;99.90
30206;DHT22;17010;51.306;3.150;2022-07-10T09:54:04;31.20;99.90
30206;DHT22;17010;51.306;3.150;2022-07-10T09:56:44;31.00;99.90
30206;DHT22;17010;51.306;3.150;2022-07-10T09:59:16;30.60;99.90
30206;DHT22;17010;51.306;3.150;2022-07-10T10:01:52;30.30;99.90
30206;DHT22;17010;51.306;3.150;2022-07-10T10:04:20;30.80;99.90
30206;DHT22;17010;51.306;3.150;2022-07-10T10:06:56;31.40;99.90
30206;DHT22;17010;51.306;3.150;2022-07-10T10:09:34;32.10;99.50
30206;DHT22;17010;51.306;3.150;2022-07-10T10:12:07;31.40;99.70
30206;DHT22;17010;51.306;3.150;2022-07-10T10:14:33;30.80;99.90
30206;DHT22;17010;51.306;3.150;2022-07-10T10:17:02;30.50;99.90
30206;DHT22;17010;51.306;3.150;2022-07-10T10:19:32;30.10;99.60
30206;DHT22;17010;51.306;3.150;2022-07-10T10:22:18;29.80;99.90
30206;DHT22;17010;51.306;3.150;2022-07-10T10:24:45;29.90;99.90
30206;DHT22;17010;51.306;3.150;2022-07-10T10:27:12;30.30;99.90
30206;DHT22;17010;51.306;3.150;2022-07-10T10:29:39;31.00;99.90
30206;DHT22;17010;51.306;3.150;2022-07-10T10:32:07;31.20;99.60
30206;DHT22;17010;51.306;3.150;2022-07-10T10:34:43;31.60;99.80
30206;DHT22;17010;51.306;3.150;2022-07-10T10:37:32;32.00;99.90
30206;DHT22;17010;51.306;3.150;2022-07-10T10:39:59;32.50;99.60
30206;DHT22;17010;51.306;3.150;2022-07-10T10:42:43;33.00;98.90
30206;DHT22;17010;51.306;3.150;2022-07-10T10:45:32;33.40;98.50
30206;DHT22;17010;51.306;3.150;2022-07-10T10:50:53;33.90;96.80
30206;DHT22;17010;51.306;3.150;2022-07-10T10:53:26;33.80;96.80
30206;DHT22;17010;51.306;3.150;2022-07-10T10:58:49;34.30;96.30
30206;DHT22;17010;51.306;3.150;2022-07-10T11:06:53;32.60;96.50
30206;DHT22;17010;51.306;3.150;2022-07-10T11:09:29;32.80;97.20
30206;DHT22;17010;51.306;3.150;2022-07-10T11:14:29;32.30;96.60
30206;DHT22;17010;51.306;3.150;2022-07-10T11:16:56;32.70;96.50
30206;DHT22;17010;51.306;3.150;2022-07-10T11:19:27;33.10;95.80
30206;DHT22;17010;51.306;3.150;2022-07-10T11:22:25;31.90;95.90
30206;DHT22;17010;51.306;3.150;2022-07-10T11:28:28;32.50;96.80
30206;DHT22;17010;51.306;3.150;2022-07-10T11:30:54;32.90;96.20
30206;DHT22;17010;51.306;3.150;2022-07-10T11:33:21;33.30;95.90
30206;DHT22;17010;51.306;3.150;2022-07-10T11:35:52;33.50;95.70
30206;DHT22;17010;51.306;3.150;2022-07-10T11:38:23;34.10;95.20
30206;DHT22;17010;51.306;3.150;2022-07-10T11:40:49;34.00;94.70
30206;DHT22;17010;51.306;3.150;2022-07-10T11:43:16;34.20;94.30
30206;DHT22;17010;51.306;3.150;2022-07-10T11:45:50;33.70;93.90
30206;DHT22;17010;51.306;3.150;2022-07-10T11:48:17;32.70;94.10
30206;DHT22;17010;51.306;3.150;2022-07-10T11:50:49;32.40;95.00
30206;DHT22;17010;51.306;3.150;2022-07-10T11:53:26;32.80;94.40
30206;DHT22;17010;51.306;3.150;2022-07-10T11:55:52;32.60;94.60
30206;DHT22;17010;51.306;3.150;2022-07-10T11:58:20;32.10;93.90
30206;DHT22;17010;51.306;3.150;2022-07-10T12:01:02;32.40;94.70
30206;DHT22;17010;51.306;3.150;2022-07-10T12:03:34;32.60;93.10
30206;DHT22;17010;51.306;3.150;2022-07-10T12:06:03;32.20;93.50
30206;DHT22;17010;51.306;3.150;2022-07-10T12:08:31;32.20;92.70
30206;DHT22;17010;51.306;3.150;2022-07-10T12:11:14;32.10;92.50
30206;DHT22;17010;51.306;3.150;2022-07-10T12:13:44;32.30;93.90
30206;DHT22;17010;51.306;3.150;2022-07-10T12:16:14;32.70;93.10
30206;DHT22;17010;51.306;3.150;2022-07-10T12:18:48;32.50;93.10
30206;DHT22;17010;51.306;3.150;2022-07-10T12:21:14;32.90;93.40
30206;DHT22;17010;51.306;3.150;2022-07-10T12:23:42;33.00;92.70
30206;DHT22;17010;51.306;3.150;2022-07-10T12:26:11;33.00;92.20
30206;DHT22;17010;51.306;3.150;2022-07-10T12:28:55;33.10;91.80
30206;DHT22;17010;51.306;3.150;2022-07-10T12:31:29;33.20;91.30
30206;DHT22;17010;51.306;3.150;2022-07-10T12:34:02;33.20;91.90
30206;DHT22;17010;51.306;3.150;2022-07-10T12:36:51;33.50;91.30
30206;DHT22;17010;51.306;3.150;2022-07-10T12:39:24;33.40;90.30
30206;DHT22;17010;51.306;3.150;2022-07-10T12:41:55;33.40;90.80
30206;DHT22;17010;51.306;3.150;2022-07-10T12:44:44;33.40;91.00
30206;DHT22;17010;51.306;3.150;2022-07-10T12:47:15;33.60;90.90
30206;DHT22;17010;51.306;3.150;2022-07-10T12:50:01;33.30;90.10
30206;DHT22;17010;51.306;3.150;2022-07-10T12:52:33;33.10;90.20
30206;DHT22;17010;51.306;3.150;2022-07-10T12:55:20;32.60;89.80
30206;DHT22;17010;51.306;3.150;2022-07-10T12:57:55;32.60;87.60
30206;DHT22;17010;51.306;3.150;2022-07-10T13:00:25;32.30;89.60
30206;DHT22;17010;51.306;3.150;2022-07-10T13:03:08;31.90;87.50
30206;DHT22;17010;51.306;3.150;2022-07-10T13:05:41;32.20;89.00
30206;DHT22;17010;51.306;3.150;2022-07-10T13:08:10;32.60;89.60
30206;DHT22;17010;51.306;3.150;2022-07-10T13:10:48;32.40;88.90
30206;DHT22;17010;51.306;3.150;2022-07-10T13:13:15;32.30;89.70
30206;DHT22;17010;51.306;3.150;2022-07-10T13:15:44;32.40;89.50
30206;DHT22;17010;51.306;3.150;2022-07-10T13:18:20;32.70;89.20
30206;DHT22;17010;51.306;3.150;2022-07-10T13:20:50;32.80;88.80
30206;DHT22;17010;51.306;3.150;2022-07-10T13:23:19;32.40;86.80
30206;DHT22;17010;51.306;3.150;2022-07-10T13:25:49;31.90;87.10
30206;DHT22;17010;51.306;3.150;2022-07-10T13:28:18;31.90;88.20
30206;DHT22;17010;51.306;3.150;2022-07-10T13:30:44;31.10;87.20
30206;DHT22;17010;51.306;3.150;2022-07-10T13:33:13;30.60;89.30
30206;DHT22;17010;51.306;3.150;2022-07-10T13:35:39;30.40;90.10
30206;DHT22;17010;51.306;3.150;2022-07-10T13:38:09;30.30;90.40
30206;DHT22;17010;51.306;3.150;2022-07-10T13:40:37;30.20;90.90
30206;DHT22;17010;51.306;3.150;2022-07-10T13:43:06;29.90;90.90
30206;DHT22;17010;51.306;3.150;2022-07-10T13:45:35;29.90;91.50
30206;DHT22;17010;51.306;3.150;2022-07-10T13:48:12;29.40;91.50
30206;DHT22;17010;51.306;3.150;2022-07-10T13:50:45;28.50;91.00
30206;DHT22;17010;51.306;3.150;2022-07-10T13:53:18;27.90;92.50
30206;DHT22;17010;51.306;3.150;2022-07-10T13:55:45;27.50;93.00
30206;DHT22;17010;51.306;3.150;2022-07-10T13:58:12;27.70;93.70
30206;DHT22;17010;51.306;3.150;2022-07-10T14:00:39;27.50;93.60
30206;DHT22;17010;51.306;3.150;2022-07-10T14:03:05;27.40;93.70
30206;DHT22;17010;51.306;3.150;2022-07-10T14:05:35;27.50;93.60
30206;DHT22;17010;51.306;3.150;2022-07-10T14:08:03;27.30;93.50
30206;DHT22;17010;51.306;3.150;2022-07-10T14:10:32;27.20;93.50
30206;DHT22;17010;51.306;3.150;2022-07-10T14:12:58;27.10;93.70
30206;DHT22;17010;51.306;3.150;2022-07-10T14:15:25;27.00;93.70
30206;DHT22;17010;51.306;3.150;2022-07-10T14:17:52;27.00;94.40
30206;DHT22;17010;51.306;3.150;2022-07-10T14:20:22;26.90;94.10
30206;DHT22;17010;51.306;3.150;2022-07-10T14:22:48;26.80;94.50
30206;DHT22;17010;51.306;3.150;2022-07-10T14:25:15;26.80;95.50
30206;DHT22;17010;51.306;3.150;2022-07-10T14:27:41;26.70;94.80
30206;DHT22;17010;51.306;3.150;2022-07-10T14:30:08;26.50;94.00
30206;DHT22;17010;51.306;3.150;2022-07-10T14:32:34;26.20;94.40
30206;DHT22;17010;51.306;3.150;2022-07-10T14:35:01;25.90;94.70
30206;DHT22;17010;51.306;3.150;2022-07-10T14:37:30;25.60;94.60
30206;DHT22;17010;51.306;3.150;2022-07-10T14:39:57;25.50;95.70
30206;DHT22;17010;51.306;3.150;2022-07-10T14:42:24;25.50;95.20
30206;DHT22;17010;51.306;3.150;2022-07-10T14:44:50;25.50;94.80
30206;DHT22;17010;51.306;3.150;2022-07-10T14:47:21;25.40;95.20
30206;DHT22;17010;51.306;3.150;2022-07-10T14:49:48;25.40;95.80
30206;DHT22;17010;51.306;3.150;2022-07-10T14:52:14;25.40;95.90
30206;DHT22;17010;51.306;3.150;2022-07-10T14:54:44;25.10;95.40
30206;DHT22;17010;51.306;3.150;2022-07-10T14:57:12;24.70;96.30
30206;DHT22;17010;51.306;3.150;2022-07-10T14:59:39;24.80;97.60
30206;DHT22;17010;51.306;3.150;2022-07-10T15:02:05;24.70;97.30
30206;DHT22;17010;51.306;3.150;2022-07-10T15:04:31;24.90;97.80
30206;DHT22;17010;51.306;3.150;2022-07-10T15:07:00;24.70;97.80
30206;DHT22;17010;51.306;3.150;2022-07-10T15:09:26;24.70;98.70
30206;DHT22;17010;51.306;3.150;2022-07-10T15:11:55;24.80;98.60
30206;DHT22;17010;51.306;3.150;2022-07-10T15:14:24;24.90;98.60
30206;DHT22;17010;51.306;3.150;2022-07-10T15:16:54;24.70;98.90
30206;DHT22;17010;51.306;3.150;2022-07-10T15:19:26;24.60;99.10
30206;DHT22;17010;51.306;3.150;2022-07-10T15:21:52;24.50;99.40
30206;DHT22;17010;51.306;3.150;2022-07-10T15:24:19;24.40;99.50
30206;DHT22;17010;51.306;3.150;2022-07-10T15:26:46;24.40;99.90
30206;DHT22;17010;51.306;3.150;2022-07-10T15:29:14;24.40;99.90
30206;DHT22;17010;51.306;3.150;2022-07-10T15:31:41;24.20;99.90
30206;DHT22;17010;51.306;3.150;2022-07-10T15:34:10;24.00;99.90
30206;DHT22;17010;51.306;3.150;2022-07-10T15:36:38;24.00;99.90
30206;DHT22;17010;51.306;3.150;2022-07-10T15:39:05;24.00;99.90
30206;DHT22;17010;51.306;3.150;2022-07-10T15:41:31;23.90;99.90
30206;DHT22;17010;51.306;3.150;2022-07-10T15:44:00;24.00;99.90
30206;DHT22;17010;51.306;3.150;2022-07-10T15:46:31;24.10;99.90
30206;DHT22;17010;51.306;3.150;2022-07-10T15:48:57;24.00;99.90
30206;DHT22;17010;51.306;3.150;2022-07-10T15:51:27;24.00;99.90
30206;DHT22;17010;51.306;3.150;2022-07-10T15:53:55;24.10;99.90
30206;DHT22;17010;51.306;3.150;2022-07-10T15:56:21;24.20;99.90
30206;DHT22;17010;51.306;3.150;2022-07-10T15:58:53;24.10;99.90
30206;DHT22;17010;51.306;3.150;2022-07-10T16:01:19;24.20;99.90
30206;DHT22;17010;51.306;3.150;2022-07-10T16:03:46;24.10;99.90
30206;DHT22;17010;51.306;3.150;2022-07-10T16:06:14;24.20;99.90
30206;DHT22;17010;51.306;3.150;2022-07-10T16:08:41;24.20;99.90
30206;DHT22;17010;51.306;3.150;2022-07-10T16:11:09;24.30;99.90
30206;DHT22;17010;51.306;3.150;2022-07-10T16:13:35;24.40;99.90